createdAt,value
2018-07-21T00:01:39.518Z,41.90
2018-07-21T00:04:10.031Z,42.00
2018-07-21T00:06:40.401Z,42.20
2018-07-21T00:09:12.975Z,42.10
2018-07-21T00:11:44.141Z,42.30
2018-07-21T00:14:14.464Z,42.60
2018-07-21T00:16:44.760Z,42.60
2018-07-21T00:19:14.941Z,42.50
2018-07-21T00:21:45.185Z,42.60
2018-07-21T00:24:15.461Z,42.80
2018-07-21T00:26:48.699Z,43.00
2018-07-21T00:29:20.422Z,43.30
2018-07-21T00:31:50.803Z,43.20
2018-07-21T00:34:21.119Z,43.30
2018-07-21T00:36:51.400Z,43.30
2018-07-21T00:39:21.741Z,43.70
2018-07-21T00:41:52.026Z,44.10
2018-07-21T00:44:22.760Z,44.30
2018-07-21T00:46:53.109Z,44.50
2018-07-21T00:49:23.319Z,44.60
2018-07-21T00:51:53.681Z,44.90
2018-07-21T00:54:23.919Z,44.90
2018-07-21T00:56:54.224Z,45.10
2018-07-21T00:59:24.480Z,45.10
2018-07-21T01:01:54.737Z,45.20
2018-07-21T01:04:25.009Z,45.30
2018-07-21T01:06:55.299Z,45.40
2018-07-21T01:09:25.535Z,45.60
2018-07-21T01:11:55.856Z,45.40
2018-07-21T01:14:26.143Z,45.80
2018-07-21T01:16:56.521Z,45.90
2018-07-21T01:21:56.576Z,46.20
2018-07-21T01:24:26.861Z,46.80
2018-07-21T01:26:57.172Z,46.30
2018-07-21T01:29:27.461Z,46.30
2018-07-21T01:31:57.719Z,46.30
2018-07-21T01:34:27.967Z,46.40
2018-07-21T01:36:58.199Z,46.50
2018-07-21T01:39:28.381Z,46.50
2018-07-21T01:41:58.749Z,46.50
2018-07-21T01:44:28.950Z,46.60
2018-07-21T01:46:59.245Z,46.70
2018-07-21T01:49:29.496Z,46.90
2018-07-21T01:51:59.808Z,46.80
2018-07-21T01:54:30.027Z,46.80
2018-07-21T01:57:00.369Z,47.00
2018-07-21T01:59:30.619Z,47.40
2018-07-21T02:02:00.901Z,47.40
2018-07-21T02:04:31.144Z,47.30
2018-07-21T02:07:01.426Z,47.50
2018-07-21T02:09:31.661Z,47.40
2018-07-21T02:12:01.925Z,47.30
2018-07-21T02:14:32.102Z,47.40
2018-07-21T02:17:02.448Z,47.50
2018-07-21T02:19:32.679Z,47.50
2018-07-21T02:24:32.853Z,48.00
2018-07-21T02:27:03.100Z,48.00
2018-07-21T02:29:33.459Z,48.00
2018-07-21T02:32:03.792Z,48.00
2018-07-21T02:34:34.145Z,48.20
2018-07-21T02:37:04.443Z,48.30
2018-07-21T02:39:34.642Z,48.50
2018-07-21T02:42:04.982Z,48.50
2018-07-21T02:44:35.159Z,48.30
2018-07-21T02:47:05.554Z,48.50
2018-07-21T02:49:35.739Z,48.70
2018-07-21T02:52:06.021Z,48.80
2018-07-21T02:54:36.281Z,48.90
2018-07-21T02:57:06.537Z,49.00
2018-07-21T02:59:36.692Z,49.10
2018-07-21T03:02:06.980Z,49.20
2018-07-21T03:04:37.263Z,49.30
2018-07-21T03:07:07.599Z,49.40
2018-07-21T03:09:37.881Z,49.40
2018-07-21T03:12:08.321Z,49.50
2018-07-21T03:14:38.669Z,49.60
2018-07-21T03:17:09.010Z,49.70
2018-07-21T03:19:39.322Z,49.80
2018-07-21T03:22:09.647Z,50.00
2018-07-21T03:24:39.945Z,50.10
2018-07-21T03:27:10.189Z,50.30
2018-07-21T03:29:40.422Z,50.50
2018-07-21T03:32:10.622Z,50.60
2018-07-21T03:34:41.071Z,50.80
2018-07-21T03:37:11.344Z,50.90
2018-07-21T03:39:41.661Z,51.20
2018-07-21T03:42:12.108Z,51.30
2018-07-21T03:44:42.298Z,51.50
2018-07-21T03:47:12.698Z,51.90
2018-07-21T03:49:42.939Z,52.00
2018-07-21T03:52:13.143Z,52.30
2018-07-21T03:54:43.428Z,52.40
2018-07-21T03:57:13.700Z,52.70
2018-07-21T03:59:44.001Z,52.80
2018-07-21T04:02:14.311Z,53.00
2018-07-21T04:04:44.563Z,53.00
2018-07-21T04:07:14.865Z,53.50
2018-07-21T04:09:45.153Z,53.30
2018-07-21T04:12:15.414Z,53.60
2018-07-21T04:14:45.740Z,53.30
2018-07-21T04:17:22.005Z,53.50
2018-07-21T04:19:52.238Z,53.60
2018-07-21T04:22:22.922Z,53.80
2018-07-21T04:24:53.151Z,53.80
2018-07-21T04:27:23.439Z,54.00
2018-07-21T04:29:54.181Z,54.20
2018-07-21T04:32:24.444Z,54.20
2018-07-21T04:34:54.698Z,54.20
2018-07-21T04:37:24.919Z,54.20
2018-07-21T04:39:55.214Z,54.30
2018-07-21T04:42:25.458Z,54.40
2018-07-21T04:44:55.701Z,54.50
2018-07-21T04:47:25.897Z,54.50
2018-07-21T04:49:56.139Z,54.60
2018-07-21T04:52:26.395Z,54.70
2018-07-21T04:54:56.676Z,54.60
2018-07-21T04:57:26.921Z,54.70
2018-07-21T04:59:57.157Z,54.80
2018-07-21T05:02:27.361Z,54.90
2018-07-21T05:04:57.584Z,54.80
2018-07-21T05:07:27.933Z,55.10
2018-07-21T05:12:28.024Z,55.20
2018-07-21T05:14:58.281Z,55.30
2018-07-21T05:17:28.541Z,55.50
2018-07-21T05:19:58.737Z,55.50
2018-07-21T05:22:28.997Z,55.50
2018-07-21T05:24:59.252Z,55.60
2018-07-21T05:27:29.543Z,55.50
2018-07-21T05:29:59.768Z,55.80
2018-07-21T05:32:30.019Z,55.80
2018-07-21T05:35:00.297Z,56.00
2018-07-21T05:37:30.581Z,56.10
2018-07-21T05:40:00.908Z,56.20
2018-07-21T05:42:31.249Z,56.40
2018-07-21T05:45:01.469Z,56.50
2018-07-21T05:47:31.663Z,56.50
2018-07-21T05:50:01.922Z,56.80
2018-07-21T05:52:32.174Z,56.90
2018-07-21T05:55:02.400Z,56.90
2018-07-21T05:57:32.617Z,57.20
2018-07-21T06:00:02.850Z,57.10
2018-07-21T06:02:33.139Z,57.20
2018-07-21T06:05:03.407Z,57.20
2018-07-21T06:07:33.759Z,57.30
2018-07-21T06:10:04.039Z,57.20
2018-07-21T06:12:34.421Z,57.10
2018-07-21T06:15:04.929Z,57.20
2018-07-21T06:17:35.217Z,57.00
2018-07-21T06:20:07.061Z,56.80
2018-07-21T06:22:37.358Z,57.10
2018-07-21T06:25:07.589Z,56.20
2018-07-21T06:27:37.904Z,55.80
2018-07-21T06:30:08.359Z,55.50
2018-07-21T06:32:38.775Z,55.30
2018-07-21T06:35:09.158Z,55.10
2018-07-21T06:37:39.480Z,54.70
2018-07-21T06:40:09.984Z,54.50
2018-07-21T06:42:40.358Z,54.30
2018-07-21T06:45:10.684Z,54.10
2018-07-21T06:52:41.017Z,53.60
2018-07-21T06:55:13.286Z,53.20
2018-07-21T06:57:44.944Z,52.90
2018-07-21T07:00:15.259Z,52.70
2018-07-21T07:02:45.507Z,52.60
2018-07-21T07:05:15.879Z,52.30
2018-07-21T07:07:46.099Z,52.10
2018-07-21T07:10:16.547Z,51.90
2018-07-21T07:12:46.919Z,52.00
2018-07-21T07:15:17.224Z,52.00
2018-07-21T07:17:47.551Z,51.90
2018-07-21T07:20:17.914Z,51.90
2018-07-21T07:22:48.179Z,52.40
2018-07-21T07:25:18.461Z,51.50
2018-07-21T07:27:48.885Z,51.30
2018-07-21T07:30:19.261Z,51.10
2018-07-21T07:32:49.732Z,51.10
2018-07-21T07:35:20.143Z,51.00
2018-07-21T07:40:20.300Z,50.70
2018-07-21T07:42:50.605Z,50.70
2018-07-21T07:47:51.246Z,50.70
2018-07-21T07:50:21.665Z,50.60
2018-07-21T07:52:51.960Z,50.40
2018-07-21T07:55:22.304Z,50.30
2018-07-21T07:57:53.280Z,50.10
2018-07-21T08:00:24.133Z,50.00
2018-07-21T08:02:54.552Z,49.90
2018-07-21T08:05:24.931Z,49.80
2018-07-21T08:07:55.417Z,49.70
2018-07-21T08:10:25.807Z,49.50
2018-07-21T08:15:28.322Z,49.30
2018-07-21T08:17:58.705Z,49.30
2018-07-21T08:20:29.046Z,49.20
2018-07-21T08:22:59.404Z,49.30
2018-07-21T08:25:29.829Z,49.40
2018-07-21T08:28:00.361Z,49.50
2018-07-21T08:30:30.666Z,49.50
2018-07-21T08:33:00.976Z,49.50
2018-07-21T08:35:31.299Z,49.50
2018-07-21T08:38:01.624Z,49.30
2018-07-21T08:40:31.984Z,49.20
2018-07-21T08:43:02.447Z,49.10
2018-07-21T08:45:33.007Z,49.10
2018-07-21T08:48:03.432Z,49.00
2018-07-21T08:50:33.777Z,48.90
2018-07-21T08:53:04.169Z,48.80
2018-07-21T08:55:34.649Z,48.60
2018-07-21T08:58:05.148Z,48.40
2018-07-21T09:00:35.749Z,48.30
2018-07-21T09:03:06.295Z,48.40
2018-07-21T09:05:36.662Z,48.10
2018-07-21T09:08:07.617Z,48.00
2018-07-21T09:10:39.308Z,48.10
2018-07-21T09:13:12.179Z,48.00
2018-07-21T09:15:42.688Z,47.60
2018-07-21T09:18:13.229Z,47.30
2018-07-21T09:20:43.706Z,47.30
2018-07-21T09:23:14.248Z,47.10
2018-07-21T09:25:44.849Z,47.00
2018-07-21T09:28:18.061Z,46.80
2018-07-21T09:30:48.929Z,46.50
2018-07-21T09:33:19.571Z,46.30
2018-07-21T09:35:50.057Z,46.10
2018-07-21T09:38:20.499Z,45.40
2018-07-21T09:40:51.026Z,44.90
2018-07-21T09:43:21.445Z,44.50
2018-07-21T09:48:21.899Z,44.40
2018-07-21T09:50:52.355Z,44.40
2018-07-21T09:53:23.368Z,44.40
2018-07-21T09:55:54.113Z,44.50
2018-07-21T09:58:24.443Z,44.40
2018-07-21T10:00:59.869Z,44.20
2018-07-21T10:03:30.694Z,44.00
2018-07-21T10:06:01.163Z,43.80
2018-07-21T10:13:25.618Z,43.30
2018-07-21T10:15:55.885Z,43.50
2018-07-21T10:18:26.152Z,43.50
2018-07-21T10:20:56.580Z,43.50
2018-07-21T10:23:26.958Z,43.20
2018-07-21T10:26:02.767Z,43.20
2018-07-21T10:28:43.057Z,42.90
2018-07-21T10:31:13.445Z,42.40
2018-07-21T10:33:43.717Z,42.30
2018-07-21T10:36:32.134Z,42.20
2018-07-21T10:39:02.764Z,42.70
2018-07-21T10:41:33.025Z,42.10
2018-07-21T10:44:03.340Z,42.00
2018-07-21T10:46:33.706Z,41.80
2018-07-21T10:49:03.978Z,42.20
2018-07-21T10:51:34.423Z,41.70
2018-07-21T10:54:05.171Z,41.70
2018-07-21T10:56:35.692Z,41.50
2018-07-21T10:59:05.948Z,41.20
2018-07-21T11:01:36.174Z,41.10
2018-07-21T11:04:06.520Z,41.10
2018-07-21T11:06:36.865Z,40.90
2018-07-21T11:09:10.605Z,40.90
2018-07-21T11:11:40.995Z,40.80
2018-07-21T11:14:11.637Z,40.50
2018-07-21T11:19:11.784Z,40.20
2018-07-21T11:21:42.099Z,40.00
2018-07-21T11:24:12.449Z,39.70
2018-07-21T11:26:42.837Z,39.50
2018-07-21T11:29:13.100Z,39.10
2018-07-21T11:31:43.431Z,38.60
2018-07-21T11:34:13.780Z,38.90
2018-07-21T11:36:44.121Z,38.50
2018-07-21T11:39:14.438Z,38.50
2018-07-21T11:41:44.840Z,38.30
2018-07-21T11:44:15.061Z,37.70
2018-07-21T11:46:45.387Z,37.40
2018-07-21T11:49:15.565Z,37.00
2018-07-21T11:51:45.823Z,37.30
2018-07-21T11:54:16.062Z,36.70
2018-07-21T11:56:46.290Z,36.80
2018-07-21T11:59:31.840Z,36.80
2018-07-21T12:02:02.070Z,37.10
2018-07-21T12:04:32.516Z,36.20
2018-07-21T12:07:02.748Z,36.30
2018-07-21T12:09:33.062Z,36.20
2018-07-21T12:12:03.304Z,36.00
2018-07-21T12:14:33.518Z,35.80
2018-07-21T12:17:03.924Z,35.70
2018-07-21T12:19:34.077Z,35.90
2018-07-21T12:22:04.247Z,35.90
2018-07-21T12:24:35.741Z,35.90
2018-07-21T12:27:06.157Z,35.70
2018-07-21T12:29:36.414Z,35.40
2018-07-21T12:32:06.642Z,35.40
2018-07-21T12:34:36.937Z,35.60
2018-07-21T12:37:07.248Z,35.50
2018-07-21T12:39:37.480Z,35.50
2018-07-21T12:42:07.357Z,35.70
2018-07-21T12:44:37.585Z,35.40
2018-07-21T12:47:08.273Z,35.20
2018-07-21T12:49:38.486Z,35.10
2018-07-21T12:52:09.122Z,35.10
2018-07-21T12:54:39.341Z,34.90
2018-07-21T12:57:09.678Z,34.90
2018-07-21T12:59:39.887Z,35.00
2018-07-21T13:02:10.159Z,35.10
2018-07-21T13:04:40.526Z,35.00
2018-07-21T13:07:12.209Z,35.10
2018-07-21T13:17:12.819Z,34.80
2018-07-21T13:19:43.132Z,34.70
2018-07-21T13:22:15.153Z,34.50
2018-07-21T13:24:48.831Z,34.20
2018-07-21T13:27:41.500Z,34.20
2018-07-21T13:30:13.139Z,34.10
2018-07-21T13:33:04.494Z,34.00
2018-07-21T13:35:48.090Z,33.80
2018-07-21T13:38:18.690Z,33.50
2018-07-21T13:40:49.045Z,33.30
2018-07-21T13:43:23.873Z,33.40
2018-07-21T13:45:55.198Z,33.40
2018-07-21T13:48:36.661Z,33.20
2018-07-21T13:51:21.382Z,33.30
2018-07-21T13:53:51.623Z,33.40
2018-07-21T13:56:21.988Z,33.50
2018-07-21T13:59:18.454Z,33.50
2018-07-21T14:02:00.979Z,33.50
2018-07-21T14:05:12.529Z,33.40
2018-07-21T14:07:50.077Z,33.30
2018-07-21T14:10:27.084Z,33.30
2018-07-21T14:12:59.254Z,33.20
2018-07-21T14:15:48.558Z,33.20
2018-07-21T14:18:21.249Z,33.10
2018-07-21T14:20:53.980Z,33.20
2018-07-21T14:23:25.983Z,33.10
2018-07-21T14:26:02.599Z,33.10
2018-07-21T14:28:34.450Z,33.00
2018-07-21T14:31:15.640Z,33.00
2018-07-21T14:33:52.501Z,32.90
2018-07-21T14:36:45.739Z,32.90
2018-07-21T14:39:16.108Z,33.00
2018-07-21T14:41:46.658Z,33.00
2018-07-21T14:44:16.837Z,33.00
2018-07-21T14:46:47.062Z,33.30
2018-07-21T14:49:17.390Z,33.80
2018-07-21T14:51:47.634Z,34.00
2018-07-21T14:54:17.856Z,34.30
2018-07-21T14:56:48.050Z,34.30
2018-07-21T14:59:18.241Z,34.30
2018-07-21T15:01:48.554Z,34.50
2018-07-21T15:04:18.783Z,34.70
2018-07-21T15:06:49.063Z,35.10
2018-07-21T15:09:19.298Z,35.20
2018-07-21T15:11:49.507Z,35.60
2018-07-21T15:14:19.717Z,36.00
2018-07-21T15:16:50.058Z,36.30
2018-07-21T15:19:20.211Z,36.70
2018-07-21T15:21:50.444Z,37.30
2018-07-21T15:24:22.358Z,38.00
2018-07-21T15:26:52.590Z,37.90
2018-07-21T15:29:22.832Z,38.50
2018-07-21T15:31:53.738Z,40.50
2018-07-21T15:34:25.675Z,42.90
2018-07-21T15:36:55.845Z,45.00
2018-07-21T15:39:28.712Z,45.70
2018-07-21T15:42:01.057Z,46.40
2018-07-21T15:44:31.284Z,46.80
2018-07-21T15:47:01.664Z,47.00
2018-07-21T15:49:31.897Z,47.10
2018-07-21T15:52:02.179Z,47.40
2018-07-21T15:54:32.377Z,47.40
2018-07-21T15:57:02.655Z,48.40
2018-07-21T15:59:32.944Z,48.80
2018-07-21T16:02:03.122Z,49.70
2018-07-21T16:04:33.378Z,49.70
2018-07-21T16:07:03.618Z,49.80
2018-07-21T16:09:33.818Z,50.40
2018-07-21T16:12:04.078Z,50.50
2018-07-21T16:14:34.352Z,51.20
2018-07-21T16:17:04.515Z,50.90
2018-07-21T16:19:34.725Z,51.20
2018-07-21T16:22:04.995Z,51.00
2018-07-21T16:24:35.340Z,51.50
2018-07-21T16:27:05.640Z,51.60
2018-07-21T16:29:35.887Z,52.10
2018-07-21T16:32:06.259Z,52.00
2018-07-21T16:34:36.580Z,52.10
2018-07-21T16:37:07.219Z,52.60
2018-07-21T16:39:37.429Z,52.80
2018-07-21T16:42:07.879Z,53.00
2018-07-21T16:44:38.134Z,53.70
2018-07-21T16:47:08.589Z,55.40
2018-07-21T16:49:38.816Z,56.70
2018-07-21T16:52:09.240Z,56.60
2018-07-21T16:54:40.516Z,56.70
2018-07-21T16:57:11.692Z,56.20
2018-07-21T16:59:42.268Z,56.60
2018-07-21T17:02:12.920Z,58.30
2018-07-21T17:04:43.394Z,59.10
2018-07-21T17:07:13.934Z,59.20
2018-07-21T17:09:44.962Z,60.00
2018-07-21T17:12:15.749Z,60.60
2018-07-21T17:14:50.562Z,59.20
2018-07-21T17:17:24.179Z,59.20
2018-07-21T17:19:55.980Z,59.70
2018-07-21T17:24:57.789Z,61.30
2018-07-21T17:27:28.257Z,62.10
2018-07-21T17:29:58.825Z,62.40
2018-07-21T17:32:29.461Z,62.00
2018-07-21T17:34:59.936Z,62.20
2018-07-21T17:37:30.320Z,61.80
2018-07-21T17:40:04.638Z,61.80
2018-07-21T17:42:35.678Z,61.50
2018-07-21T17:45:06.732Z,61.80
2018-07-21T17:47:45.461Z,61.40
2018-07-21T17:50:17.960Z,61.00
2018-07-21T17:52:48.963Z,61.10
2018-07-21T17:55:20.432Z,61.10
2018-07-21T17:57:51.044Z,61.50
2018-07-21T18:00:22.560Z,61.90
2018-07-21T18:02:53.096Z,62.10
2018-07-21T18:05:23.891Z,62.30
2018-07-21T18:07:54.304Z,62.30
2018-07-21T18:10:24.761Z,62.50
2018-07-21T18:12:55.370Z,63.50
2018-07-21T18:15:26.160Z,66.00
2018-07-21T18:17:56.592Z,65.30
2018-07-21T18:20:27.025Z,65.30
2018-07-21T18:25:27.759Z,65.30
2018-07-21T18:27:58.875Z,65.50
2018-07-21T18:30:29.363Z,65.40
2018-07-21T18:33:00.010Z,65.30
2018-07-21T18:35:30.521Z,65.40
2018-07-21T18:38:01.019Z,65.50
2018-07-21T18:40:31.415Z,65.60
2018-07-21T18:43:02.002Z,65.60
2018-07-21T18:45:32.432Z,65.10
2018-07-21T18:48:02.838Z,64.80
2018-07-21T18:50:33.279Z,64.50
2018-07-21T18:53:03.730Z,64.60
2018-07-21T18:55:34.170Z,64.80
2018-07-21T18:58:04.656Z,64.90
2018-07-21T19:00:35.080Z,64.80
2018-07-21T19:03:05.578Z,66.30
2018-07-21T19:05:36.026Z,66.20
2018-07-21T19:08:06.476Z,65.90
2018-07-21T19:10:39.752Z,65.90
2018-07-21T19:13:10.309Z,65.40
2018-07-21T19:15:45.710Z,65.20
2018-07-21T19:18:18.178Z,65.20
2018-07-21T19:20:58.029Z,65.10
2018-07-21T19:23:28.578Z,64.80
2018-07-21T19:26:04.011Z,66.30
2018-07-21T19:28:34.739Z,66.70
2018-07-21T19:31:05.917Z,66.90
2018-07-21T19:33:36.422Z,66.80
2018-07-21T19:36:08.002Z,67.10
2018-07-21T19:38:38.589Z,67.40
2018-07-21T19:41:14.086Z,67.50
2018-07-21T19:43:44.634Z,67.70
2018-07-21T19:46:15.077Z,67.70
2018-07-21T19:48:46.855Z,67.70
2018-07-21T19:51:17.352Z,67.80
2018-07-21T19:53:47.811Z,67.90
2018-07-21T19:56:18.290Z,68.20
2018-07-21T19:58:48.894Z,68.40
2018-07-21T20:01:19.414Z,68.50
2018-07-21T20:03:49.950Z,68.60
2018-07-21T20:06:20.495Z,68.70
2018-07-21T20:08:51.023Z,68.90
2018-07-21T20:11:21.488Z,69.10
2018-07-21T20:13:52.024Z,69.30
2018-07-21T20:16:22.509Z,69.30
2018-07-21T20:18:52.930Z,69.40
2018-07-21T20:21:23.414Z,69.60
2018-07-21T20:23:54.026Z,69.70
2018-07-21T20:26:24.505Z,69.70
2018-07-21T20:28:54.895Z,69.70
2018-07-21T20:31:25.375Z,69.90
2018-07-21T20:33:56.778Z,70.00
2018-07-21T20:36:27.739Z,70.20
2018-07-21T20:38:58.148Z,70.40
2018-07-21T20:41:29.147Z,70.50
2018-07-21T20:43:59.743Z,70.50
2018-07-21T20:46:30.767Z,70.40
2018-07-21T20:49:02.351Z,70.40
2018-07-21T20:51:32.877Z,69.90
2018-07-21T20:54:03.436Z,70.10
2018-07-21T20:56:33.967Z,70.30
2018-07-21T20:59:04.641Z,70.40
2018-07-21T21:01:36.026Z,70.40
2018-07-21T21:04:06.722Z,70.50
2018-07-21T21:06:44.714Z,70.60
2018-07-21T21:09:15.149Z,70.90
2018-07-21T21:11:45.524Z,71.10
2018-07-21T21:14:16.018Z,71.20
2018-07-21T21:16:46.464Z,71.30
2018-07-21T21:19:17.501Z,71.30
2018-07-21T21:21:48.018Z,71.20
2018-07-21T21:24:18.394Z,71.20
2018-07-21T21:26:48.984Z,71.00
2018-07-21T21:29:19.580Z,71.00
2018-07-21T21:31:50.059Z,71.50
2018-07-21T21:34:20.561Z,71.60
2018-07-21T21:36:51.154Z,71.50
2018-07-21T21:39:21.727Z,71.60
2018-07-21T21:41:53.043Z,71.50
2018-07-21T21:44:23.580Z,71.70
2018-07-21T21:46:58.761Z,71.70
2018-07-21T21:49:29.160Z,71.70
2018-07-21T21:51:59.624Z,71.80
2018-07-21T21:54:30.040Z,71.80
2018-07-21T21:57:01.561Z,72.10
2018-07-21T21:59:32.085Z,72.40
2018-07-21T22:02:02.690Z,72.80
2018-07-21T22:04:33.212Z,73.00
2018-07-21T22:07:03.739Z,73.10
2018-07-21T22:09:34.347Z,73.10
2018-07-21T22:12:04.921Z,73.50
2018-07-21T22:14:35.382Z,73.70
2018-07-21T22:17:05.820Z,73.80
2018-07-21T22:19:36.330Z,73.80
2018-07-21T22:22:06.845Z,73.90
2018-07-21T22:24:37.276Z,74.10
2018-07-21T22:27:07.896Z,74.30
2018-07-21T22:29:38.489Z,74.80
2018-07-21T22:32:08.916Z,75.10
2018-07-21T22:34:39.365Z,74.80
2018-07-21T22:37:09.861Z,74.70
2018-07-21T22:39:40.345Z,74.40
2018-07-21T22:42:10.847Z,74.40
2018-07-21T22:44:41.328Z,74.80
2018-07-21T22:47:11.966Z,74.80
2018-07-21T22:49:42.437Z,75.00
2018-07-21T22:52:13.022Z,75.10
2018-07-21T22:54:43.695Z,75.50
2018-07-21T22:59:44.297Z,75.80
2018-07-21T23:02:14.878Z,75.90
2018-07-21T23:04:45.378Z,76.00
2018-07-21T23:07:15.928Z,76.10
2018-07-21T23:09:46.506Z,77.10
2018-07-21T23:12:20.654Z,76.20
2018-07-21T23:14:51.193Z,76.20
2018-07-21T23:17:21.787Z,76.10
2018-07-21T23:19:52.530Z,76.10
2018-07-21T23:22:23.069Z,76.10
2018-07-21T23:24:53.606Z,76.20
2018-07-21T23:27:24.276Z,76.20
2018-07-21T23:29:54.780Z,76.90
2018-07-21T23:32:25.502Z,76.00
2018-07-21T23:34:55.952Z,75.90
2018-07-21T23:37:26.454Z,75.80
2018-07-21T23:39:57.044Z,75.80
2018-07-21T23:42:27.981Z,75.80
2018-07-21T23:44:58.607Z,75.80
2018-07-21T23:47:29.007Z,75.80
2018-07-21T23:49:59.520Z,75.80
2018-07-21T23:52:30.141Z,75.80
2018-07-21T23:55:00.670Z,75.60
2018-07-21T23:57:31.174Z,75.50
